createdAt,value
2017-02-08T00:08:39.418Z,99.5
2017-02-08T00:18:51.632Z,99.6
2017-02-08T00:29:03.799Z,98.5
2017-02-08T00:39:15.945Z,98.3
2017-02-08T00:49:28.131Z,98.4
2017-02-08T00:59:40.345Z,97.5
2017-02-08T01:09:52.592Z,98.2
2017-02-08T01:20:04.775Z,97.3
2017-02-08T01:30:16.922Z,96.8
2017-02-08T01:40:29.118Z,96.6
2017-02-08T01:50:41.280Z,96.7
2017-02-08T02:00:53.455Z,96.8
2017-02-08T02:11:05.640Z,96.7
2017-02-08T02:21:17.749Z,96.3
2017-02-08T02:31:29.911Z,96.1
2017-02-08T02:41:42.037Z,96.3
2017-02-08T02:51:54.130Z,96.1
2017-02-08T03:02:06.216Z,95
2017-02-08T03:12:18.249Z,95.7
2017-02-08T03:22:30.355Z,95.9
2017-02-08T03:32:42.484Z,96.4
2017-02-08T03:42:54.616Z,95.8
2017-02-08T03:53:06.785Z,95.7
2017-02-08T04:03:18.960Z,95.6
2017-02-08T04:13:31.182Z,95.3
2017-02-08T04:23:43.349Z,95.5
2017-02-08T04:33:55.508Z,95.2
2017-02-08T04:44:07.678Z,95.3
2017-02-08T04:54:19.806Z,95.2
2017-02-08T05:04:31.961Z,95.2
2017-02-08T05:14:44.147Z,95.1
2017-02-08T05:24:56.335Z,95.7
2017-02-08T05:35:08.500Z,95.3
2017-02-08T05:45:20.694Z,94.7
2017-02-08T05:55:32.917Z,95.3
2017-02-08T06:05:45.085Z,95.7
2017-02-08T06:15:57.276Z,95.8
2017-02-08T06:26:09.514Z,95.8
2017-02-08T06:36:21.794Z,95.3
2017-02-08T06:46:34.031Z,95.8
2017-02-08T06:56:46.294Z,95.3
2017-02-08T07:06:58.536Z,95.3
2017-02-08T07:17:10.787Z,95.8
2017-02-08T07:27:23.023Z,95.5
2017-02-08T07:37:35.234Z,95.2
2017-02-08T07:47:47.385Z,95
2017-02-08T07:57:59.470Z,95.2
2017-02-08T08:08:11.555Z,95.1
2017-02-08T08:18:23.611Z,94.3
2017-02-08T08:28:35.691Z,94.1
2017-02-08T08:38:47.684Z,93.8
2017-02-08T08:48:59.686Z,94.2
2017-02-08T08:59:11.649Z,93.9
2017-02-08T09:09:23.607Z,93.8
2017-02-08T09:19:35.525Z,93.5
2017-02-08T09:29:47.473Z,94.1
2017-02-08T09:39:59.353Z,93.6
2017-02-08T09:50:11.200Z,93.1
2017-02-08T10:00:22.978Z,92.8
2017-02-08T10:10:34.738Z,92.7
2017-02-08T10:20:46.524Z,92.2
2017-02-08T10:30:58.281Z,91.8
2017-02-08T10:41:09.943Z,91.6
2017-02-08T10:51:21.583Z,91.5
2017-02-08T11:01:33.119Z,90.8
2017-02-08T11:21:55.912Z,89.7
2017-02-08T11:32:07.200Z,89.2
2017-02-08T11:42:18.451Z,88.7
2017-02-08T11:52:29.646Z,89.9
2017-02-08T12:02:40.876Z,88.9
2017-02-08T12:12:52.195Z,89.3
2017-02-08T12:23:03.650Z,89.1
2017-02-08T12:33:14.900Z,89.1
2017-02-08T12:43:26.207Z,88.3
2017-02-08T12:53:37.551Z,88.4
2017-02-08T13:03:48.929Z,88.1
2017-02-08T13:14:00.348Z,87.7
2017-02-08T13:24:11.706Z,87.8
2017-02-08T13:34:23.034Z,87.8
2017-02-08T13:44:34.330Z,87.5
2017-02-08T13:54:45.720Z,88
2017-02-08T14:04:57.107Z,87.8
2017-02-08T14:15:08.636Z,87.7
2017-02-08T14:25:20.106Z,87.7
2017-02-08T14:35:31.603Z,87.7
2017-02-08T14:45:43.240Z,88.7
2017-02-08T14:55:54.957Z,89.1
2017-02-08T15:06:06.747Z,88.4
2017-02-08T15:16:18.574Z,88.8
2017-02-08T15:26:30.462Z,88.7
2017-02-08T15:36:42.338Z,89.2
2017-02-08T15:46:54.268Z,89.2
2017-02-08T15:57:06.245Z,89.3
2017-02-08T16:07:18.244Z,89.9
2017-02-08T16:17:30.360Z,89.8
2017-02-08T16:27:42.460Z,90.2
2017-02-08T16:37:54.621Z,89.8
2017-02-08T16:48:06.856Z,90.3
2017-02-08T16:58:19.086Z,90.1
2017-02-08T17:08:31.342Z,90.2
2017-02-08T17:18:43.627Z,90.2
2017-02-08T17:28:55.900Z,90.2
2017-02-08T17:39:08.194Z,89.6
2017-02-08T17:49:20.502Z,89.6
2017-02-08T17:59:32.814Z,90.3
2017-02-08T18:09:45.121Z,90.5
2017-02-08T18:19:57.505Z,90.7
2017-02-08T18:30:09.846Z,90.6
2017-02-08T18:40:22.213Z,91.1
2017-02-08T18:50:34.591Z,91
2017-02-08T19:00:46.964Z,91.6
2017-02-08T19:10:59.355Z,91.1
2017-02-08T19:21:11.720Z,90.9
2017-02-08T19:31:24.100Z,90.8
2017-02-08T19:41:36.518Z,91.1
2017-02-08T19:51:48.919Z,90.7
2017-02-08T20:02:01.323Z,91
2017-02-08T20:12:13.755Z,90.5
2017-02-08T20:22:26.159Z,90.3
2017-02-08T20:32:38.613Z,90.8
2017-02-08T20:42:51.049Z,90.4
2017-02-08T20:53:03.487Z,90.6
2017-02-08T21:03:15.909Z,90.8
2017-02-08T21:13:28.389Z,90.3
2017-02-08T21:23:40.877Z,90.2
2017-02-08T21:33:53.409Z,90.8
2017-02-08T21:44:05.929Z,90.7
2017-02-08T21:54:18.423Z,90.8
2017-02-08T22:04:30.871Z,90.9
2017-02-08T22:14:43.351Z,90.6
2017-02-08T22:24:55.838Z,91.5
2017-02-08T22:35:08.250Z,90.7
2017-02-08T22:45:20.667Z,91.6
2017-02-08T22:55:33.038Z,90.8
2017-02-08T23:05:45.391Z,91.5
2017-02-08T23:15:57.733Z,91
2017-02-08T23:26:10.104Z,91
2017-02-08T23:36:22.494Z,91.4
2017-02-08T23:46:34.856Z,90.7
2017-02-08T23:56:47.236Z,91.3
